首页
METAR-TAF:

METAR-TAF

机场 :

卡利亚里, 意大利

纬度: 39-15N, 经度: 009-04E, 海拔: 4米

当前天气观测

该预报发布于26分钟前的04:50 UTC
风速5节,风向北转西北
温度 18°C
湿度 88%
气压 1014 hPa
能见度10公里或以上
1500米以下无云,无积雨云

METAR: LIEE 170450Z 33005KT CAVOK 18/16 Q1014

时间: 07:16 (05:16 UTC)

预报

该预报发布于6小时和16分钟前的23:00 UTC
预报有效从17日的 00点(UTC)到 17日的 24点(UTC)
风速5节,风向多变
能见度10公里或以上
少量云层高于2000英尺
成为
从 17日的 08点(UTC)到 17日的 11点(UTC)
风速12节,风向
成为
从 17日的 18点(UTC)到 17日的 20点(UTC)
风速4节,风向多变

TAF: LIEE 162300Z 1700/1724 VRB05KT 9999 FEW020 BECMG 1708/1711 17012KT BECMG 1718/1720 VRB04KT

超过4000个机场的气象观测和天气预报(METAR&TAF报告)。

可查询的气象台以黄色和红色小点在地图上表示。

将鼠标移到小点上方,可查看气象台名称。

然后点击查看天气观测和预报。

如需切换地图:点击带黑十字的绿色按钮放大地图;点击带横线的绿色按钮缩小地图;或者点击绿色箭头查看邻近地区的地图。


METAR-TAF: